createdAt,value
2018-05-13T00:00:18.093Z,89.28
2018-05-13T00:01:18.111Z,89.18
2018-05-13T00:02:18.136Z,89.28
2018-05-13T00:03:18.168Z,89.86
2018-05-13T00:04:18.171Z,90.58
2018-05-13T00:05:18.198Z,90.77
2018-05-13T00:06:18.234Z,91.00
2018-05-13T00:07:18.282Z,90.72
2018-05-13T00:08:18.248Z,89.95
2018-05-13T00:09:18.276Z,90.96
2018-05-13T00:10:18.291Z,90.05
2018-05-13T00:11:18.356Z,90.14
2018-05-13T00:12:18.342Z,89.76
2018-05-13T00:13:18.382Z,89.18
2018-05-13T00:14:18.368Z,89.86
2018-05-13T00:15:18.400Z,89.76
2018-05-13T00:16:18.413Z,90.14
2018-05-13T00:17:18.468Z,90.72
2018-05-13T00:18:18.453Z,90.05
2018-05-13T00:19:18.482Z,89.76
2018-05-13T00:20:18.496Z,89.86
2018-05-13T00:21:18.515Z,89.66
2018-05-13T00:22:18.530Z,90.96
2018-05-13T00:23:18.574Z,90.19
2018-05-13T00:24:18.567Z,90.81
2018-05-13T00:25:18.594Z,89.52
2018-05-13T00:26:18.608Z,89.90
2018-05-13T00:27:18.693Z,89.14
2018-05-13T00:28:18.692Z,90.09
2018-05-13T00:29:18.702Z,90.19
2018-05-13T00:30:18.689Z,90.58
2018-05-13T00:31:18.721Z,90.00
2018-05-13T00:32:18.731Z,89.14
2018-05-13T00:33:18.756Z,90.00
2018-05-13T00:34:18.774Z,90.96
2018-05-13T00:35:18.785Z,90.34
2018-05-13T00:36:18.816Z,90.82
2018-05-13T00:37:18.828Z,90.53
2018-05-13T00:38:18.848Z,90.15
2018-05-13T00:39:18.869Z,90.67
2018-05-13T00:40:18.892Z,90.34
2018-05-13T00:41:18.997Z,90.05
2018-05-13T00:42:18.966Z,90.15
2018-05-13T00:43:18.949Z,90.91
2018-05-13T00:44:18.982Z,90.72
2018-05-13T00:45:19.003Z,90.82
2018-05-13T00:46:19.060Z,90.96
2018-05-13T00:47:19.030Z,91.20
2018-05-13T00:48:19.123Z,90.44
2018-05-13T00:49:19.071Z,91.01
2018-05-13T00:50:19.083Z,90.72
2018-05-13T00:51:19.176Z,90.00
2018-05-13T00:52:19.182Z,91.30
2018-05-13T00:53:19.142Z,91.20
2018-05-13T00:54:19.160Z,90.82
2018-05-13T00:55:19.182Z,90.82
2018-05-13T00:56:19.249Z,90.63
2018-05-13T00:57:19.222Z,91.11
2018-05-13T00:58:19.279Z,91.49
2018-05-13T00:59:19.259Z,90.67
2018-05-13T01:00:19.312Z,90.53
2018-05-13T01:01:19.310Z,90.63
2018-05-13T01:02:19.323Z,90.19
2018-05-13T01:03:19.336Z,89.76
2018-05-13T01:04:19.377Z,90.96
2018-05-13T01:05:19.377Z,92.21
2018-05-13T01:06:19.521Z,92.49
2018-05-13T01:07:19.414Z,91.97
2018-05-13T01:08:19.435Z,91.63
2018-05-13T01:09:19.453Z,91.35
2018-05-13T01:10:19.483Z,91.83
2018-05-13T01:11:19.554Z,91.11
2018-05-13T01:12:19.611Z,90.44
2018-05-13T01:13:19.536Z,90.82
2018-05-13T01:14:19.573Z,91.16
2018-05-13T01:15:19.665Z,91.53
2018-05-13T01:16:19.593Z,92.11
2018-05-13T01:17:19.612Z,91.35
2018-05-13T01:18:19.640Z,90.87
2018-05-13T01:19:19.683Z,90.67
2018-05-13T01:20:19.693Z,90.58
2018-05-13T01:21:19.691Z,91.68
2018-05-13T01:22:19.718Z,91.53
2018-05-13T01:23:19.814Z,91.83
2018-05-13T01:24:19.762Z,92.54
2018-05-13T01:25:19.770Z,92.64
2018-05-13T01:26:19.791Z,91.88
2018-05-13T01:27:19.879Z,91.68
2018-05-13T01:28:19.832Z,91.78
2018-05-13T01:29:19.846Z,91.68
2018-05-13T01:30:19.869Z,92.02
2018-05-13T01:31:19.883Z,92.21
2018-05-13T01:32:19.942Z,91.35
2018-05-13T01:33:19.929Z,91.53
2018-05-13T01:34:19.944Z,90.48
2018-05-13T01:35:19.963Z,91.25
2018-05-13T01:36:19.996Z,90.87
2018-05-13T01:37:20.004Z,93.31
2018-05-13T01:38:20.068Z,92.59
2018-05-13T01:39:20.039Z,91.44
2018-05-13T01:40:20.162Z,91.35
2018-05-13T01:41:20.086Z,91.35
2018-05-13T01:42:20.103Z,90.96
2018-05-13T01:43:20.121Z,92.11
2018-05-13T01:44:20.143Z,92.25
2018-05-13T01:45:20.189Z,91.63
2018-05-13T01:46:20.175Z,92.02
2018-05-13T01:47:20.202Z,91.83
2018-05-13T01:48:20.222Z,90.96
2018-05-13T01:49:20.265Z,90.48
2018-05-13T01:50:20.256Z,90.48
2018-05-13T01:51:20.283Z,90.96
2018-05-13T01:52:20.299Z,90.39
2018-05-13T01:53:20.313Z,89.43
2018-05-13T01:54:20.382Z,90.39
2018-05-13T01:55:20.361Z,89.81
2018-05-13T01:56:20.381Z,89.34
2018-05-13T01:57:20.391Z,89.81
2018-05-13T01:58:20.451Z,88.95
2018-05-13T01:59:20.430Z,88.95
2018-05-13T02:00:20.449Z,89.24
2018-05-13T02:01:20.475Z,89.91
2018-05-13T02:02:20.485Z,90.58
2018-05-13T02:03:20.516Z,90.58
2018-05-13T02:04:20.533Z,90.87
2018-05-13T02:05:20.546Z,90.77
2018-05-13T02:06:20.570Z,90.67
2018-05-13T02:07:20.588Z,90.58
2018-05-13T02:08:20.601Z,89.72
2018-05-13T02:09:20.624Z,89.53
2018-05-13T02:10:20.678Z,89.87
2018-05-13T02:11:20.669Z,90.67
2018-05-13T02:12:20.682Z,90.58
2018-05-13T02:13:20.702Z,90.67
2018-05-13T02:14:20.727Z,91.30
2018-05-13T02:15:20.743Z,91.39
2018-05-13T02:16:20.761Z,90.92
2018-05-13T02:17:20.777Z,90.73
2018-05-13T02:18:20.804Z,91.20
2018-05-13T02:19:20.822Z,91.49
2018-05-13T02:20:20.836Z,90.73
2018-05-13T02:21:20.855Z,90.92
2018-05-13T02:22:20.880Z,90.92
2018-05-13T02:23:20.913Z,90.53
2018-05-13T02:24:20.912Z,89.87
2018-05-13T02:25:20.932Z,90.53
2018-05-13T02:26:20.968Z,90.25
2018-05-13T02:27:20.979Z,90.16
2018-05-13T02:28:20.987Z,90.53
2018-05-13T02:29:21.014Z,90.44
2018-05-13T02:30:21.028Z,90.06
2018-05-13T02:31:21.047Z,90.34
2018-05-13T02:32:21.144Z,90.73
2018-05-13T02:33:21.107Z,91.83
2018-05-13T02:34:21.123Z,91.83
2018-05-13T02:35:21.135Z,91.45
2018-05-13T02:36:21.160Z,91.11
2018-05-13T02:37:21.223Z,90.44
2018-05-13T02:38:21.186Z,90.34
2018-05-13T02:39:21.279Z,90.53
2018-05-13T02:40:21.228Z,90.06
2018-05-13T02:41:21.262Z,90.16
2018-05-13T02:42:21.276Z,90.06
2018-05-13T02:43:21.365Z,89.20
2018-05-13T02:44:21.301Z,89.20
2018-05-13T02:45:21.346Z,89.39
2018-05-13T02:46:21.353Z,89.01
2018-05-13T02:47:21.398Z,89.01
2018-05-13T02:48:21.373Z,89.29
2018-05-13T02:49:21.401Z,90.06
2018-05-13T02:50:21.461Z,89.58
2018-05-13T02:51:21.433Z,90.59
2018-05-13T02:52:21.462Z,90.63
2018-05-13T02:53:21.493Z,90.68
2018-05-13T02:54:21.495Z,90.44
2018-05-13T02:55:21.508Z,89.20
2018-05-13T02:56:22.434Z,89.20
2018-05-13T02:57:21.673Z,89.10
2018-05-13T02:58:21.600Z,90.16
2018-05-13T02:59:21.633Z,90.01
2018-05-13T03:00:21.657Z,90.78
2018-05-13T03:01:21.848Z,90.25
2018-05-13T03:02:21.733Z,90.68
2018-05-13T03:03:21.672Z,90.88
2018-05-13T03:04:21.684Z,91.45
2018-05-13T03:05:21.728Z,91.45
2018-05-13T03:06:21.721Z,90.97
2018-05-13T03:07:21.814Z,91.74
2018-05-13T03:08:21.799Z,91.25
2018-05-13T03:09:21.784Z,91.74
2018-05-13T03:10:21.853Z,91.25
2018-05-13T03:11:21.890Z,90.88
2018-05-13T03:12:21.876Z,91.74
2018-05-13T03:13:21.861Z,91.83
2018-05-13T03:14:21.875Z,91.45
2018-05-13T03:15:21.932Z,92.64
2018-05-13T03:16:21.996Z,91.69
2018-05-13T03:17:21.935Z,92.55
2018-05-13T03:18:21.963Z,92.83
2018-05-13T03:19:21.973Z,93.12
2018-05-13T03:20:22.010Z,92.45
2018-05-13T03:21:22.054Z,91.83
2018-05-13T03:22:22.034Z,90.88
2018-05-13T03:23:22.073Z,90.49
2018-05-13T03:24:22.069Z,88.87
2018-05-13T03:25:22.119Z,89.01
2018-05-13T03:26:22.131Z,88.72
2018-05-13T03:27:22.124Z,88.34
2018-05-13T03:28:22.179Z,88.62
2018-05-13T03:29:22.250Z,88.34
2018-05-13T03:30:22.181Z,88.43
2018-05-13T03:31:22.199Z,88.53
2018-05-13T03:32:22.226Z,89.29
2018-05-13T03:33:22.246Z,89.39
2018-05-13T03:34:22.257Z,88.91
2018-05-13T03:35:22.350Z,89.20
2018-05-13T03:36:22.293Z,88.81
2018-05-13T03:37:22.316Z,88.81
2018-05-13T03:38:22.402Z,88.62
2018-05-13T03:39:22.353Z,88.53
2018-05-13T03:40:22.465Z,87.95
2018-05-13T03:41:22.485Z,87.95
2018-05-13T03:42:22.411Z,87.95
2018-05-13T03:43:22.428Z,88.15
2018-05-13T03:44:22.452Z,88.91
2018-05-13T03:45:22.476Z,90.49
2018-05-13T03:46:22.496Z,90.59
2018-05-13T03:47:22.574Z,89.96
2018-05-13T03:48:22.526Z,89.63
2018-05-13T03:49:22.666Z,90.59
2018-05-13T03:50:22.576Z,90.20
2018-05-13T03:51:22.663Z,89.87
2018-05-13T03:52:22.612Z,89.73
2018-05-13T03:53:22.622Z,90.49
2018-05-13T03:54:22.652Z,90.78
2018-05-13T03:55:22.667Z,91.25
2018-05-13T03:56:22.680Z,90.20
2018-05-13T03:57:22.705Z,90.20
2018-05-13T03:58:22.767Z,90.49
2018-05-13T03:59:22.736Z,89.48
2018-05-13T04:00:22.824Z,88.72
2018-05-13T04:01:22.868Z,87.76
2018-05-13T04:02:22.792Z,87.57
2018-05-13T04:03:22.841Z,87.04
2018-05-13T04:04:22.868Z,86.76
2018-05-13T04:05:22.855Z,85.89
2018-05-13T04:06:22.871Z,86.18
2018-05-13T04:07:22.996Z,86.37
2018-05-13T04:08:22.992Z,85.51
2018-05-13T04:09:22.931Z,85.71
2018-05-13T04:10:23.009Z,85.65
2018-05-13T04:11:22.985Z,85.36
2018-05-13T04:12:22.994Z,85.55
2018-05-13T04:13:23.021Z,86.13
2018-05-13T04:14:23.029Z,85.55
2018-05-13T04:15:23.053Z,85.36
2018-05-13T04:16:23.087Z,85.55
2018-05-13T04:17:23.084Z,85.08
2018-05-13T04:18:23.242Z,85.17
2018-05-13T04:19:23.125Z,85.08
2018-05-13T04:20:23.160Z,84.45
2018-05-13T04:21:23.165Z,84.16
2018-05-13T04:22:23.188Z,84.79
2018-05-13T04:23:23.214Z,84.69
2018-05-13T04:24:23.232Z,84.69
2018-05-13T04:25:23.307Z,84.98
2018-05-13T04:26:23.275Z,84.98
2018-05-13T04:27:23.306Z,86.22
2018-05-13T04:28:23.320Z,86.13
2018-05-13T04:29:23.320Z,87.14
2018-05-13T04:30:23.345Z,87.52
2018-05-13T04:31:23.360Z,88.09
2018-05-13T04:32:23.395Z,88.48
2018-05-13T04:33:23.403Z,88.76
2018-05-13T04:34:23.423Z,88.09
2018-05-13T04:35:23.451Z,86.85
2018-05-13T04:36:23.461Z,88.09
2018-05-13T04:37:23.480Z,88.38
2018-05-13T04:38:23.506Z,87.47
2018-05-13T04:39:23.525Z,87.18
2018-05-13T04:40:23.550Z,86.13
2018-05-13T04:41:23.570Z,85.88
2018-05-13T04:42:23.630Z,84.74
2018-05-13T04:43:23.619Z,83.72
2018-05-13T04:44:23.655Z,83.68
2018-05-13T04:45:23.668Z,85.31
2018-05-13T04:46:23.661Z,86.08
2018-05-13T04:47:23.779Z,85.69
2018-05-13T04:48:23.723Z,85.31
2018-05-13T04:49:23.880Z,84.35
2018-05-13T04:50:23.846Z,84.26
2018-05-13T04:51:23.765Z,84.55
2018-05-13T04:52:23.786Z,84.64
2018-05-13T04:53:23.808Z,83.87
2018-05-13T04:54:23.832Z,83.87
2018-05-13T04:55:23.955Z,84.30
2018-05-13T04:56:23.868Z,84.64
2018-05-13T04:57:23.922Z,85.02
2018-05-13T04:58:23.906Z,85.50
2018-05-13T04:59:23.929Z,85.94
2018-05-13T05:00:23.948Z,87.08
2018-05-13T05:01:23.969Z,87.76
2018-05-13T05:02:24.001Z,87.76
2018-05-13T05:03:24.008Z,87.23
2018-05-13T05:04:24.037Z,85.79
2018-05-13T05:05:24.055Z,84.68
2018-05-13T05:06:24.069Z,83.72
2018-05-13T05:07:24.140Z,82.76
2018-05-13T05:08:24.112Z,82.67
2018-05-13T05:09:24.130Z,82.38
2018-05-13T05:10:24.167Z,81.95
2018-05-13T05:11:24.239Z,82.19
2018-05-13T05:12:24.191Z,82.76
2018-05-13T05:13:24.216Z,82.67
2018-05-13T05:14:24.230Z,82.62
2018-05-13T05:15:24.259Z,82.04
2018-05-13T05:16:24.346Z,82.38
2018-05-13T05:17:24.300Z,83.25
2018-05-13T05:18:24.314Z,82.57
2018-05-13T05:19:24.332Z,83.82
2018-05-13T05:20:24.402Z,82.86
2018-05-13T05:21:24.376Z,82.42
2018-05-13T05:22:24.443Z,82.52
2018-05-13T05:23:24.422Z,82.14
2018-05-13T05:24:24.436Z,82.18
2018-05-13T05:25:24.515Z,81.70
2018-05-13T05:26:24.475Z,81.60
2018-05-13T05:27:24.497Z,81.41
2018-05-13T05:28:24.616Z,81.12
2018-05-13T05:29:24.542Z,80.49
2018-05-13T05:30:24.556Z,80.58
2018-05-13T05:31:24.579Z,79.91
2018-05-13T05:32:24.672Z,80.58
2018-05-13T05:33:24.687Z,79.44
2018-05-13T05:34:24.650Z,79.09
2018-05-13T05:35:24.666Z,78.80
2018-05-13T05:36:24.783Z,79.05
2018-05-13T05:37:24.702Z,79.34
2018-05-13T05:38:24.729Z,79.44
2018-05-13T05:39:24.759Z,79.91
2018-05-13T05:40:24.764Z,81.70
2018-05-13T05:41:24.842Z,82.46
2018-05-13T05:42:24.819Z,83.14
2018-05-13T05:43:24.823Z,83.14
2018-05-13T05:44:24.850Z,84.15
2018-05-13T05:45:24.968Z,85.11
2018-05-13T05:46:24.892Z,84.48
2018-05-13T05:47:24.908Z,83.71
2018-05-13T05:48:24.954Z,82.94
2018-05-13T05:49:24.962Z,81.74
2018-05-13T05:50:25.136Z,80.63
2018-05-13T05:51:25.066Z,78.84
2018-05-13T05:52:25.023Z,78.02
2018-05-13T05:53:25.086Z,77.53
2018-05-13T05:54:25.063Z,76.67
2018-05-13T05:55:25.079Z,76.77
2018-05-13T05:56:25.099Z,76.42
2018-05-13T05:57:25.120Z,75.37
2018-05-13T05:58:25.140Z,75.07
2018-05-13T05:59:25.248Z,74.15
2018-05-13T06:00:25.202Z,73.57
2018-05-13T06:01:25.207Z,73.13
2018-05-13T06:02:25.232Z,72.20
2018-05-13T06:03:25.351Z,72.11
2018-05-13T06:04:25.273Z,73.13
2018-05-13T06:05:25.305Z,73.13
2018-05-13T06:06:25.338Z,73.13
2018-05-13T06:07:25.382Z,72.78
2018-05-13T06:08:25.365Z,72.53
2018-05-13T06:09:25.540Z,70.89
2018-05-13T06:10:25.486Z,70.54
2018-05-13T06:11:25.424Z,69.48
2018-05-13T06:12:25.508Z,68.80
2018-05-13T06:13:25.497Z,69.48
2018-05-13T06:14:25.499Z,69.29
2018-05-13T06:15:25.519Z,70.31
2018-05-13T06:16:25.561Z,70.25
2018-05-13T06:17:25.900Z,68.93
2018-05-13T06:18:25.581Z,66.69
2018-05-13T06:19:25.625Z,64.98
2018-05-13T06:20:25.633Z,64.59
2018-05-13T06:21:25.649Z,64.69
2018-05-13T06:22:25.759Z,64.50
2018-05-13T06:23:25.707Z,64.50
2018-05-13T06:24:25.727Z,64.24
2018-05-13T06:25:25.781Z,63.73
2018-05-13T06:26:25.766Z,61.66
2018-05-13T06:27:25.797Z,60.27
2018-05-13T06:28:25.820Z,60.37
2018-05-13T06:29:25.842Z,59.89
2018-05-13T06:30:25.922Z,60.57
2018-05-13T06:31:25.890Z,60.50
2018-05-13T06:32:25.992Z,59.69
2018-05-13T06:33:25.942Z,58.84
2018-05-13T06:34:25.972Z,59.59
2018-05-13T06:35:26.000Z,57.01
2018-05-13T06:36:26.052Z,54.56
2018-05-13T06:37:26.043Z,56.83
2018-05-13T06:38:26.071Z,57.61
2018-05-13T06:39:26.100Z,57.28
2018-05-13T06:40:26.125Z,54.97
2018-05-13T06:41:26.224Z,54.11
2018-05-13T06:42:26.186Z,51.56
2018-05-13T06:43:26.263Z,48.22
2018-05-13T06:44:26.240Z,45.04
2018-05-13T06:45:26.268Z,43.79
2018-05-13T06:46:26.354Z,45.17
2018-05-13T06:47:26.327Z,49.19
2018-05-13T06:48:26.376Z,52.72
2018-05-13T06:49:26.417Z,54.44
2018-05-13T06:50:26.401Z,54.66
2018-05-13T06:51:26.522Z,54.82
2018-05-13T06:52:26.530Z,54.46
2018-05-13T06:53:26.490Z,54.00
2018-05-13T06:54:26.539Z,54.27
2018-05-13T06:55:26.544Z,53.97
2018-05-13T06:56:26.645Z,54.58
2018-05-13T06:57:26.634Z,54.56
2018-05-13T06:58:26.625Z,55.21
2018-05-13T06:59:26.828Z,55.82
2018-05-13T07:00:26.666Z,54.75
2018-05-13T07:01:26.697Z,56.90
2018-05-13T07:02:26.855Z,58.59
2018-05-13T07:03:26.820Z,59.61
2018-05-13T07:04:26.937Z,57.80
2018-05-13T07:05:26.807Z,58.19
2018-05-13T07:06:26.846Z,59.81
2018-05-13T07:07:26.864Z,59.03
2018-05-13T07:08:26.990Z,57.11
2018-05-13T07:09:26.918Z,56.36
2018-05-13T07:10:26.960Z,53.62
2018-05-13T07:11:27.022Z,52.67
2018-05-13T07:12:26.994Z,53.59
2018-05-13T07:13:27.017Z,54.47
2018-05-13T07:14:27.046Z,54.93
2018-05-13T07:15:27.074Z,53.42
2018-05-13T07:16:27.153Z,50.87
2018-05-13T07:17:27.133Z,51.51
2018-05-13T07:18:27.165Z,51.36
2018-05-13T07:19:27.252Z,50.48
2018-05-13T07:20:27.227Z,48.83
2018-05-13T07:21:27.371Z,46.82
2018-05-13T07:22:27.268Z,47.38
2018-05-13T07:23:27.368Z,46.99
2018-05-13T07:24:27.329Z,46.23
2018-05-13T07:25:27.375Z,45.55
2018-05-13T07:26:27.385Z,45.16
2018-05-13T07:27:27.417Z,44.05
2018-05-13T07:28:27.533Z,43.40
2018-05-13T07:29:27.471Z,45.70
2018-05-13T07:30:27.497Z,44.28
2018-05-13T07:31:27.544Z,43.81
2018-05-13T07:32:27.551Z,43.93
2018-05-13T07:33:27.594Z,43.81
2018-05-13T07:34:27.632Z,43.99
2018-05-13T07:35:27.693Z,45.37
2018-05-13T07:36:27.749Z,44.01
2018-05-13T07:37:27.715Z,42.76
2018-05-13T07:38:27.747Z,45.58
2018-05-13T07:39:27.824Z,47.07
2018-05-13T07:40:27.784Z,45.45
2018-05-13T07:41:27.834Z,47.09
2018-05-13T07:42:27.843Z,49.93
2018-05-13T07:43:28.043Z,50.21
2018-05-13T07:44:27.904Z,49.68
2018-05-13T07:45:27.950Z,47.80
2018-05-13T07:46:27.958Z,46.16
2018-05-13T07:47:27.994Z,44.29
2018-05-13T07:48:28.068Z,42.99
2018-05-13T07:49:28.065Z,44.52
2018-05-13T07:50:28.111Z,43.43
2018-05-13T07:51:28.135Z,41.35
2018-05-13T07:52:28.142Z,42.58
2018-05-13T07:53:28.161Z,42.82
2018-05-13T07:54:28.234Z,41.51
2018-05-13T07:55:28.221Z,40.25
2018-05-13T07:56:28.248Z,38.72
2018-05-13T07:57:28.277Z,38.80
2018-05-13T07:58:28.313Z,38.40
2018-05-13T07:59:28.417Z,39.06
2018-05-13T08:00:28.369Z,39.43
2018-05-13T08:01:28.429Z,39.62
2018-05-13T08:02:28.432Z,38.76
2018-05-13T08:03:28.506Z,38.56
2018-05-13T08:04:28.515Z,38.76
2018-05-13T08:05:28.515Z,39.61
2018-05-13T08:06:28.548Z,38.96
2018-05-13T08:07:28.608Z,38.09
2018-05-13T08:08:28.612Z,37.96
2018-05-13T08:09:28.638Z,39.43
2018-05-13T08:10:28.669Z,38.62
2018-05-13T08:11:28.699Z,37.55
2018-05-13T08:12:28.724Z,37.42
2018-05-13T08:13:28.753Z,40.56
2018-05-13T08:14:28.932Z,42.21
2018-05-13T08:15:28.819Z,40.43
2018-05-13T08:16:28.848Z,41.11
2018-05-13T08:17:28.878Z,43.62
2018-05-13T08:18:28.972Z,43.40
2018-05-13T08:19:28.998Z,42.66
2018-05-13T08:20:29.042Z,43.05
2018-05-13T08:21:28.987Z,42.09
2018-05-13T08:22:29.127Z,40.63
2018-05-13T08:23:29.088Z,37.62
2018-05-13T08:24:29.188Z,36.28
2018-05-13T08:25:29.298Z,35.88
2018-05-13T08:26:29.144Z,39.09
2018-05-13T08:27:29.167Z,41.25
2018-05-13T08:28:29.239Z,42.19
2018-05-13T08:29:29.228Z,42.27
2018-05-13T08:30:29.337Z,42.95
2018-05-13T08:31:29.286Z,42.95
2018-05-13T08:32:29.310Z,42.66
2018-05-13T08:33:29.332Z,44.55
2018-05-13T08:34:29.369Z,45.26
2018-05-13T08:35:29.392Z,44.12
2018-05-13T08:36:29.421Z,42.79
2018-05-13T08:37:29.514Z,42.77
2018-05-13T08:38:29.481Z,43.51
2018-05-13T08:39:29.521Z,45.34
2018-05-13T08:40:29.522Z,46.97
2018-05-13T08:41:29.554Z,48.46
2018-05-13T08:42:29.581Z,45.56
2018-05-13T08:43:29.623Z,46.04
2018-05-13T08:44:29.666Z,47.34
2018-05-13T08:45:29.676Z,48.19
2018-05-13T08:46:29.711Z,49.88
2018-05-13T08:47:29.731Z,48.80
2018-05-13T08:48:29.840Z,50.07
2018-05-13T08:49:29.770Z,48.00
2018-05-13T08:50:29.798Z,48.71
2018-05-13T08:51:29.887Z,48.97
2018-05-13T08:52:29.927Z,48.88
2018-05-13T08:53:29.994Z,48.24
2018-05-13T08:54:29.898Z,47.78
2018-05-13T08:55:30.053Z,47.88
2018-05-13T08:56:29.949Z,47.88
2018-05-13T08:57:29.977Z,46.26
2018-05-13T08:58:30.008Z,45.46
2018-05-13T08:59:30.034Z,46.88
2018-05-13T09:00:30.051Z,48.63
2018-05-13T09:01:30.079Z,46.41
2018-05-13T09:02:30.209Z,47.05
2018-05-13T09:03:30.142Z,47.27
2018-05-13T09:04:30.169Z,46.70
2018-05-13T09:05:30.232Z,46.04
2018-05-13T09:06:30.216Z,47.63
2018-05-13T09:07:30.230Z,49.85
2018-05-13T09:08:30.352Z,50.14
2018-05-13T09:09:30.287Z,50.53
2018-05-13T09:10:30.384Z,50.68
2018-05-13T09:11:30.334Z,51.31
2018-05-13T09:12:30.372Z,51.09
2018-05-13T09:13:30.389Z,49.56
2018-05-13T09:14:30.512Z,48.80
2018-05-13T09:15:30.436Z,50.63
2018-05-13T09:16:30.469Z,51.97
2018-05-13T09:17:30.538Z,48.46
2018-05-13T09:18:30.518Z,48.17
2018-05-13T09:19:30.543Z,48.75
2018-05-13T09:20:30.706Z,51.39
2018-05-13T09:21:30.591Z,51.67
2018-05-13T09:22:30.621Z,51.90
2018-05-13T09:23:30.642Z,50.09
2018-05-13T09:24:30.662Z,48.56
2018-05-13T09:25:30.689Z,48.75
2018-05-13T09:26:30.742Z,49.27
2018-05-13T09:27:30.795Z,48.80
2018-05-13T09:28:30.765Z,49.66
2018-05-13T09:29:30.797Z,47.88
2018-05-13T09:30:30.868Z,47.59
2018-05-13T09:31:30.877Z,48.95
2018-05-13T09:32:30.870Z,47.32
2018-05-13T09:33:30.894Z,46.76
2018-05-13T09:34:30.919Z,47.13
2018-05-13T09:35:30.956Z,46.34
2018-05-13T09:36:30.973Z,46.64
2018-05-13T09:37:31.078Z,48.58
2018-05-13T09:38:31.023Z,47.52
2018-05-13T09:39:31.062Z,46.61
2018-05-13T09:40:31.130Z,46.34
2018-05-13T09:41:31.152Z,47.69
2018-05-13T09:42:31.118Z,46.93
2018-05-13T09:43:31.149Z,45.22
2018-05-13T09:44:31.174Z,45.59
2018-05-13T09:45:31.215Z,46.20
2018-05-13T09:46:31.308Z,43.84
2018-05-13T09:47:31.251Z,45.10
2018-05-13T09:48:31.272Z,45.76
2018-05-13T09:49:31.296Z,46.15
2018-05-13T09:50:31.340Z,45.94
2018-05-13T09:51:31.349Z,45.84
2018-05-13T09:52:31.425Z,47.00
2018-05-13T09:53:31.400Z,48.29
2018-05-13T09:54:31.433Z,46.56
2018-05-13T09:55:31.455Z,47.53
2018-05-13T09:56:31.562Z,44.76
2018-05-13T09:57:31.589Z,44.15
2018-05-13T09:58:31.564Z,46.70
2018-05-13T09:59:31.563Z,46.73
2018-05-13T10:00:31.578Z,47.61
2018-05-13T10:01:31.623Z,45.49
2018-05-13T10:02:31.626Z,46.47
2018-05-13T10:03:31.654Z,45.95
2018-05-13T10:04:31.783Z,47.17
2018-05-13T10:05:31.718Z,48.63
2018-05-13T10:06:31.731Z,49.51
2018-05-13T10:07:31.756Z,49.90
2018-05-13T10:08:31.846Z,48.41
2018-05-13T10:09:31.894Z,47.59
2018-05-13T10:10:31.841Z,45.88
2018-05-13T10:11:31.893Z,46.76
2018-05-13T10:12:31.966Z,44.90
2018-05-13T10:13:31.905Z,46.39
2018-05-13T10:14:32.023Z,48.71
2018-05-13T10:15:31.968Z,43.44
2018-05-13T10:16:32.044Z,44.71
2018-05-13T10:17:32.017Z,45.98
2018-05-13T10:18:32.084Z,46.27
2018-05-13T10:19:32.116Z,46.66
2018-05-13T10:20:32.083Z,46.66
2018-05-13T10:21:32.109Z,45.88
2018-05-13T10:22:32.135Z,45.78
2018-05-13T10:23:32.159Z,44.15
2018-05-13T10:24:32.189Z,43.66
2018-05-13T10:25:32.211Z,43.12
2018-05-13T10:26:32.264Z,43.65
2018-05-13T10:27:32.267Z,43.55
2018-05-13T10:28:32.296Z,42.16
2018-05-13T10:29:32.318Z,42.24
2018-05-13T10:30:32.369Z,43.74
2018-05-13T10:31:32.374Z,43.15
2018-05-13T10:32:32.391Z,43.98
2018-05-13T10:33:32.485Z,45.32
2018-05-13T10:34:32.456Z,46.02
2018-05-13T10:35:32.468Z,47.44
2018-05-13T10:36:32.495Z,48.51
2018-05-13T10:37:32.530Z,49.61
2018-05-13T10:38:32.545Z,45.67
2018-05-13T10:39:32.615Z,47.90
2018-05-13T10:40:32.697Z,49.37
2018-05-13T10:41:32.673Z,48.17
2018-05-13T10:42:32.707Z,48.56
2018-05-13T10:43:32.686Z,49.80
2018-05-13T10:44:32.745Z,50.41
2018-05-13T10:45:32.884Z,50.90
2018-05-13T10:46:32.750Z,50.90
2018-05-13T10:47:32.774Z,50.78
2018-05-13T10:48:32.811Z,50.12
2018-05-13T10:49:32.829Z,50.41
2018-05-13T10:50:32.855Z,50.12
2018-05-13T10:51:32.883Z,50.31
2018-05-13T10:52:32.912Z,49.73
2018-05-13T10:53:32.941Z,50.41
2018-05-13T10:54:33.033Z,51.58
2018-05-13T10:55:33.047Z,51.51
2018-05-13T10:56:33.024Z,49.95
2018-05-13T10:57:33.151Z,51.58
2018-05-13T10:58:33.094Z,49.99
2018-05-13T10:59:33.280Z,48.05
2018-05-13T11:00:33.151Z,48.32
2018-05-13T11:01:33.179Z,50.73
2018-05-13T11:02:33.284Z,51.33
2018-05-13T11:03:33.249Z,50.82
2018-05-13T11:04:33.211Z,51.62
2018-05-13T11:05:33.319Z,51.72
2018-05-13T11:06:33.274Z,50.38
2018-05-13T11:07:33.382Z,50.41
2018-05-13T11:08:33.375Z,50.07
2018-05-13T11:09:33.347Z,50.65
2018-05-13T11:10:33.435Z,50.07
2018-05-13T11:11:33.421Z,49.97
2018-05-13T11:12:33.409Z,50.46
2018-05-13T11:13:33.471Z,50.16
2018-05-13T11:14:33.459Z,49.95
2018-05-13T11:15:33.504Z,50.34
2018-05-13T11:16:33.512Z,49.66
2018-05-13T11:17:33.529Z,50.34
2018-05-13T11:18:33.559Z,51.31
2018-05-13T11:19:33.585Z,50.07
2018-05-13T11:20:33.614Z,49.80
2018-05-13T11:21:33.645Z,50.09
2018-05-13T11:22:33.659Z,50.09
2018-05-13T11:23:33.758Z,48.54
2018-05-13T11:24:33.704Z,47.76
2018-05-13T11:25:33.731Z,48.34
2018-05-13T11:26:33.756Z,48.36
2018-05-13T11:27:33.872Z,49.07
2018-05-13T11:28:33.801Z,51.29
2018-05-13T11:29:33.844Z,50.12
2018-05-13T11:30:33.859Z,49.56
2018-05-13T11:31:33.881Z,49.66
2018-05-13T11:32:33.911Z,50.12
2018-05-13T11:33:33.939Z,48.49
2018-05-13T11:34:33.966Z,49.17
2018-05-13T11:35:33.983Z,49.83
2018-05-13T11:36:34.023Z,50.82
2018-05-13T11:37:34.051Z,52.69
2018-05-13T11:38:34.138Z,52.50
2018-05-13T11:39:34.092Z,51.48
2018-05-13T11:40:34.106Z,51.19
2018-05-13T11:41:34.131Z,52.14
2018-05-13T11:42:34.168Z,51.94
2018-05-13T11:43:34.183Z,51.29
2018-05-13T11:44:34.209Z,50.87
2018-05-13T11:45:34.237Z,50.65
2018-05-13T11:46:34.264Z,50.24
2018-05-13T11:47:34.380Z,50.65
2018-05-13T11:48:34.323Z,49.71
2018-05-13T11:49:34.344Z,48.93
2018-05-13T11:50:34.485Z,49.51
2018-05-13T11:51:34.385Z,49.80
2018-05-13T11:52:34.409Z,50.34
2018-05-13T11:53:34.645Z,52.09
2018-05-13T11:54:34.463Z,52.31
2018-05-13T11:55:34.485Z,51.82
2018-05-13T11:56:34.534Z,51.14
2018-05-13T11:57:34.728Z,50.68
2018-05-13T11:58:34.672Z,50.65
2018-05-13T11:59:34.597Z,51.89
2018-05-13T12:00:34.607Z,50.75
2018-05-13T12:01:34.641Z,50.09
2018-05-13T12:02:34.706Z,49.61
2018-05-13T12:03:34.775Z,49.66
2018-05-13T12:04:34.710Z,50.24
2018-05-13T12:05:34.740Z,48.30
2018-05-13T12:06:34.895Z,49.95
2018-05-13T12:07:34.839Z,49.85
2018-05-13T12:08:34.805Z,48.71
2018-05-13T12:09:34.886Z,46.59
2018-05-13T12:10:34.883Z,46.59
2018-05-13T12:11:34.905Z,46.78
2018-05-13T12:12:34.904Z,46.51
2018-05-13T12:13:34.928Z,45.35
2018-05-13T12:14:34.955Z,46.42
2018-05-13T12:15:34.994Z,44.96
2018-05-13T12:16:35.003Z,45.91
2018-05-13T12:17:35.166Z,46.20
2018-05-13T12:18:35.058Z,46.18
2018-05-13T12:19:35.083Z,45.91
2018-05-13T12:20:35.103Z,46.57
2018-05-13T12:21:35.129Z,46.67
2018-05-13T12:22:35.162Z,47.61
2018-05-13T12:23:35.181Z,47.54
2018-05-13T12:24:35.431Z,48.71
2018-05-13T12:25:35.231Z,49.78
2018-05-13T12:26:35.260Z,49.78
2018-05-13T12:27:35.466Z,49.87
2018-05-13T12:28:35.310Z,48.22
2018-05-13T12:29:35.353Z,48.97
2018-05-13T12:30:35.411Z,48.51
2018-05-13T12:31:35.515Z,48.51
2018-05-13T12:32:35.494Z,47.03
2018-05-13T12:33:35.437Z,47.54
2018-05-13T12:34:35.456Z,46.94
2018-05-13T12:35:35.485Z,47.52
2018-05-13T12:36:35.512Z,47.54
2018-05-13T12:37:35.536Z,46.77
2018-05-13T12:38:35.560Z,46.77
2018-05-13T12:39:35.647Z,45.97
2018-05-13T12:40:35.605Z,46.06
2018-05-13T12:41:35.771Z,45.31
2018-05-13T12:42:35.655Z,45.77
2018-05-13T12:43:35.745Z,45.81
2018-05-13T12:44:35.726Z,45.81
2018-05-13T12:45:35.734Z,46.98
2018-05-13T12:46:35.879Z,49.49
2018-05-13T12:47:35.787Z,50.56
2018-05-13T12:48:35.803Z,50.73
2018-05-13T12:49:35.838Z,50.80
2018-05-13T12:50:35.972Z,50.89
2018-05-13T12:51:35.887Z,51.93
2018-05-13T12:52:35.903Z,53.03